Flight Track Log - Related Links

Times and Time Zones

All times are in EDT time to prevent confusion due to time zone crossing. See the ASQ4225 flight status page for this flight to view local times or setup timezone preferences in your user account.

Time Position Orientation Groundspeed Altitude Reporting Facility
EDT Latitude Longitude Course Direction KTS MPH feet Rate Location/Type
Thu 05:11:27 PM 32.9300 -80.1431 271° West 218 251 3,600  Level Jacksonville Center
Thu 05:12:27 PM 32.9317 -80.2222 271° West 238 274 5,900 2,600 Climbing Jacksonville Center
Thu 05:13:27 PM 32.9333 -80.3061 271° West 251 289 8,800 2,300 Climbing Jacksonville Center
Thu 05:14:27 PM 32.9353 -80.3978 249° West 256 295 10,500 1,600 Climbing Jacksonville Center
Thu 05:15:27 PM 32.9036 -80.4950 243° Southwest 290 334 12,000 1,800 Climbing Jacksonville Center
Thu 05:16:27 PM 32.8617 -80.5950 244° Southwest 317 365 14,100 1,950 Climbing Jacksonville Center
Thu 05:17:27 PM 32.8217 -80.6925 244° Southwest 323 372 15,900 1,700 Climbing Jacksonville Center
Thu 05:18:27 PM 32.7797 -80.7947 244° Southwest 336 387 17,500 1,750 Climbing Jacksonville Center
Thu 05:19:27 PM 32.7375 -80.8972 243° Southwest 342 394 19,400 1,900 Climbing Jacksonville Center
Thu 05:20:27 PM 32.6950 -80.9967 244° Southwest 342 394 21,300 1,850 Climbing Jacksonville Center
Thu 05:21:27 PM 32.6589 -81.0864 244° Southwest 342 394 23,100 1,900 Climbing Jacksonville Center
Thu 05:22:27 PM 32.6144 -81.1958 244° Southwest 342 394 25,100 1,750 Climbing Jacksonville Center
Thu 05:23:27 PM 32.5739 -81.2928 242° Southwest 337 388 26,600 1,450 Climbing Jacksonville Center
Thu 05:24:27 PM 32.5314 -81.3894 245° Southwest 337 388 28,000 700 Climbing Jacksonville Center
Thu 05:25:27 PM 32.4947 -81.4836 243° Southwest 344 396 28,000 150 Level Jacksonville Center
Thu 05:26:27 PM 32.4419 -81.6050 244° Southwest 369 425 28,300 800 Climbing Jacksonville Center
Thu 05:27:27 PM 32.4011 -81.7042 243° Southwest 379 436 29,600 1,400 Climbing Jacksonville Center
Thu 05:28:27 PM 32.3539 -81.8131 261° West 379 436 31,100 1,200 Climbing Jacksonville Center
Thu 05:29:27 PM 32.3361 -81.9386 269° West 363 418 32,000 722 Climbing Jacksonville Center
Thu 05:31:05 PM 32.3331 -82.1386 269° West 375 432 33,000 759 Climbing Atlanta Center
Thu 05:32:05 PM 32.3306 -82.2592 270° West 375 432 34,000 500 Climbing Atlanta Center
Thu 05:33:05 PM 32.3303 -82.3894 269° West 384 442 34,000 100 Level Atlanta Center
Thu 05:34:05 PM 32.3278 -82.5150 269° West 390 449 34,200 1,000 Climbing Atlanta Center
Thu 05:35:05 PM 32.3253 -82.6428 272° West 395 455 36,000 900 Climbing Atlanta Center
Thu 05:36:05 PM 32.3286 -82.7656 268° West 388 447 36,000  Level Atlanta Center
Thu 05:37:05 PM 32.3256 -82.8933 269° West 383 441 36,000  Level Atlanta Center
Thu 05:38:05 PM 32.3228 -83.0261 268° West 388 447 36,000  Level Atlanta Center
Thu 05:39:05 PM 32.3194 -83.1539 269° West 393 452 36,000  Level Atlanta Center
Thu 05:40:05 PM 32.3183 -83.2867 268° West 399 459 36,000  Level Atlanta Center
Thu 05:41:05 PM 32.3147 -83.4169 268° West 399 459 36,000  Level Atlanta Center
Thu 05:42:05 PM 32.3111 -83.5447 268° West 399 459 36,000  Level Atlanta Center
Thu 05:43:05 PM 32.3075 -83.6775 269° West 399 459 36,000  Level Atlanta Center
Thu 05:44:05 PM 32.3058 -83.8053 268° West 404 465 36,000  Level Atlanta Center
Thu 05:45:05 PM 32.3017 -83.9381 269° West 404 465 36,000  Level Atlanta Center
Thu 05:46:05 PM 32.2997 -84.0708 268° West 404 465 36,000  Level Atlanta Center
Thu 05:47:05 PM 32.2956 -84.1986 268° West 404 465 36,000  Level Atlanta Center
Thu 05:48:05 PM 32.2911 -84.3314 269° West 404 465 36,000  Level Atlanta Center
Thu 05:49:05 PM 32.2886 -84.4614 268° West 404 465 36,000  Level Atlanta Center
Thu 05:50:05 PM 32.2839 -84.5967 267° West 404 465 36,000  Level Atlanta Center
Thu 05:51:05 PM 32.2789 -84.7292 269° West 404 465 36,000  Level Atlanta Center
Thu 05:52:05 PM 32.2761 -84.8569 269° West 394 453 36,000  Level Atlanta Center
Thu 05:53:05 PM 32.2731 -84.9919 267° West 406 467 36,000  Level Atlanta Center
Thu 05:54:05 PM 32.2678 -85.1247 268° West 406 467 36,000  Level Atlanta Center
Thu 05:55:17 PM 32.2647 -85.2450 267° West 411 473 36,000  Level Atlanta Center
Thu 05:56:17 PM 32.2567 -85.4167 268° West 406 467 36,000  Level Atlanta Center
Thu 05:57:17 PM 32.2531 -85.5492 268° West 401 461 36,000  Level Atlanta Center
Thu 05:58:17 PM 32.2492 -85.6842 265° West 406 467 36,000  Level Atlanta Center
Thu 05:59:17 PM 32.2389 -85.8192 269° West 412 474 36,000  Level Atlanta Center
Thu 06:00:17 PM 32.2369 -85.9542 267° West 412 474 36,000  Level Atlanta Center
Thu 06:01:17 PM 32.2306 -86.0867 270° West 412 474 36,000  Level Atlanta Center
Thu 06:02:17 PM 32.2306 -86.2119 256° West 418 481 36,000  Level Atlanta Center
Thu 06:03:17 PM 32.1986 -86.3583 232° Southwest 418 481 36,000  Level Atlanta Center
Thu 06:04:18 PM 32.1364 -86.4525 230° Southwest 402 463 36,000  Level Atlanta Center
Thu 06:05:17 PM 32.0589 -86.5606 229° Southwest 418 481 36,000  Level Atlanta Center
Thu 06:06:17 PM 31.9839 -86.6614 227° Southwest 424 488 36,000  Level Atlanta Center
Thu 06:07:17 PM 31.9003 -86.7664 230° Southwest 415 478 36,000  Level Atlanta Center
Thu 06:08:17 PM 31.8378 -86.8550 230° Southwest 405 466 36,000  Level Atlanta Center
Thu 06:09:17 PM 31.7686 -86.9506 228° Southwest 397 457 36,000  Level Atlanta Center
Thu 06:10:17 PM 31.7019 -87.0386 232° Southwest 381 438 36,000  Level Atlanta Center
Thu 06:11:17 PM 31.6389 -87.1342 229° Southwest 376 433 36,000  Level Atlanta Center
Thu 06:12:18 PM 31.5700 -87.2269 229° Southwest 376 433 36,000  Level Atlanta Center
Thu 06:14:38 PM 31.3953 -87.4617 229° Southwest 383 441 36,000  Level Houston Center
Thu 06:15:38 PM 31.3231 -87.5597 229° Southwest 396 456 36,000  Level Houston Center
Thu 06:16:38 PM 31.2511 -87.6572 233° Southwest 401 461 36,000  Level Houston Center
Thu 06:17:38 PM 31.1911 -87.7494 246° West 401 461 36,000  Level Houston Center
Thu 06:18:38 PM 31.1486 -87.8625 248° West 384 442 36,000  Level Houston Center
Thu 06:19:38 PM 31.1100 -87.9756 247° West 384 442 36,000 -50 Level Houston Center
Thu 06:20:38 PM 31.0692 -88.0861 248° West 384 442 35,900  Descending Houston Center
Thu 06:21:38 PM 31.0283 -88.2014 251° West 384 442 36,000 50 Climbing Houston Center
Thu 06:22:38 PM 30.9936 -88.3164 246° West 384 442 36,000  Level Houston Center
Thu 06:23:38 PM 30.9506 -88.4292 248° West 384 442 36,000  Level Houston Center
Thu 06:24:38 PM 30.9114 -88.5442 245° Southwest 384 442 36,000  Level Houston Center
Thu 06:25:38 PM 30.8661 -88.6592 248° West 384 442 36,000  Level Houston Center
Thu 06:26:38 PM 30.8247 -88.7767 247° West 384 442 36,000  Level Houston Center
Thu 06:27:38 PM 30.7794 -88.9011 250° West 384 442 36,000  Level Houston Center
Thu 06:28:38 PM 30.7481 -89.0033 247° West 378 435 36,000  Level Houston Center
Thu 06:29:38 PM 30.7064 -89.1181 248° West 378 435 36,000  Level Houston Center
Thu 06:30:38 PM 30.6647 -89.2350 247° West 383 441 36,000  Level Houston Center
Thu 06:31:38 PM 30.6231 -89.3494 248° West 389 448 36,000  Level Houston Center
Thu 06:32:38 PM 30.5831 -89.4636 247° West 389 448 36,000  Level Houston Center
Thu 06:33:38 PM 30.5411 -89.5803 248° West 395 455 36,000  Level Houston Center
Thu 06:34:38 PM 30.4972 -89.7089 246° West 395 455 36,000  Level Houston Center
Thu 06:35:38 PM 30.4528 -89.8253 248° West 395 455 36,000  Level Houston Center
Thu 06:36:38 PM 30.4086 -89.9489 247° West 401 461 36,000  Level Houston Center
Thu 06:37:38 PM 30.3661 -90.0628 245° Southwest 401 461 36,000  Level Houston Center
Thu 06:38:38 PM 30.3194 -90.1789 248° West 396 456 36,000  Level Houston Center
Thu 06:39:38 PM 30.2789 -90.2950 247° West 396 456 36,000 -50 Level Houston Center
Thu 06:40:38 PM 30.2361 -90.4133 245° Southwest 396 456 35,900 -50 Descending Houston Center
Thu 06:41:38 PM 30.1892 -90.5317 247° West 396 456 35,900 50 Level Houston Center
Thu 06:42:38 PM 30.1464 -90.6500 247° West 396 456 36,000 50 Climbing Houston Center
Thu 06:43:38 PM 30.1033 -90.7678 246° West 396 456 36,000  Level Houston Center
Thu 06:44:38 PM 30.0581 -90.8836 248° West 396 456 36,000  Level Houston Center
Thu 06:45:38 PM 30.0169 -91.0036 246° West 396 456 36,000  Level Houston Center
Thu 06:46:38 PM 29.9717 -91.1192 246° West 396 456 36,000  Level Houston Center
Thu 06:48:38 PM 29.8825 -91.3544 246° West 396 456 36,000  Level Houston Center
Thu 06:49:38 PM 29.8367 -91.4719 248° West 396 456 36,000  Level Houston Center
Thu 06:50:38 PM 29.7950 -91.5892 243° Southwest 396 456 36,000 -400 Level Houston Center
Thu 06:51:38 PM 29.7450 -91.7042 248° West 396 456 35,200 -1,300 Descending Houston Center
Thu 06:52:38 PM 29.7075 -91.8094 246° West 396 456 33,400 -1,600 Descending Houston Center
Thu 06:53:38 PM 29.6614 -91.9264 246° West 396 456 32,000 -700 Descending Houston Center
Thu 06:54:38 PM 29.6150 -92.0458 246° West 396 456 32,000  Level Houston Center
Thu 06:55:38 PM 29.5686 -92.1650 246° West 406 467 32,000  Level Houston Center
Thu 06:56:38 PM 29.5222 -92.2867 245° Southwest 406 467 32,000 -50 Level Houston Center
Thu 06:57:38 PM 29.4714 -92.4128 264° West 420 483 31,900  Descending Houston Center
Thu 06:58:38 PM 29.4603 -92.5414 273° West 420 483 32,000 50 Climbing Houston Center
Thu 06:59:38 PM 29.4656 -92.6753 273° West 415 478 32,000  Level Houston Center
Thu 07:00:38 PM 29.4708 -92.8064 274° West 415 478 32,000  Level Houston Center
Thu 07:01:38 PM 29.4781 -92.9403 272° West 420 483 32,000  Level Houston Center
Thu 07:02:38 PM 29.4828 -93.0833 272° West 420 483 32,000  Level Houston Center
Thu 07:03:38 PM 29.4878 -93.2172 272° West 420 483 32,000 -700 Level Houston Center
Thu 07:04:38 PM 29.4922 -93.3508 273° West 420 483 30,600 -1,600 Descending Houston Center
Thu 07:05:38 PM 29.4989 -93.4847 272° West 420 483 28,800 -1,950 Descending Houston Center
Thu 07:06:38 PM 29.5033 -93.6136 273° West 420 483 26,700 -2,300 Descending Houston Center
Thu 07:07:38 PM 29.5081 -93.7306 273° West 403 464 24,200 -2,700 Descending Houston Center
Thu 07:08:38 PM 29.5144 -93.8525 274° West 389 448 21,300 -2,900 Descending Houston Center
Thu 07:09:38 PM 29.5208 -93.9719 271° West 383 441 18,400 -2,950 Descending Houston Center
Thu 07:10:38 PM 29.5231 -94.0867 273° West 383 441 15,400 -3,000 Descending Houston Center
Thu 07:11:12 PM 29.5261 -94.1464 272° West 350 403 13,700 -1,440 Descending Houston Center
Thu 07:12:18 PM 29.5300 -94.2683 278° West 332 382 13,000 -375 Descending Houston Center
Thu 07:13:20 PM 29.5425 -94.3736 296° West 322 371 12,900 -683 Descending Houston Center
Thu 07:14:21 PM 29.5786 -94.4581 297° West 289 333 11,600 -1,574 Descending Houston Center
Thu 07:15:22 PM 29.6164 -94.5450 297° West 291 335 9,700 -1,869 Descending Houston Center
Thu 07:16:23 PM 29.6522 -94.6272 296° West 291 335 7,800 -1,756 Descending Houston Center
Thu 07:17:25 PM 29.6878 -94.7119 296° West 282 325 6,100 -837 Descending Houston Center
Thu 07:18:32 PM 29.7256 -94.8017 298° West 282 325 6,000 -45 Descending Houston Center
Thu 07:19:38 PM 29.7611 -94.8794 293° West 284 327 6,000  Level Houston Center
Thu 07:20:33 PM 29.7944 -94.9689 297° West 288 331 6,000  Level Houston Center
Thu 07:21:29 PM 29.8261 -95.0417 296° West 286 329 6,000  Level Houston Center
Thu 07:22:30 PM 29.8617 -95.1267 296° West 284 327 6,000  Level Houston Center
Thu 07:23:31 PM 29.8969 -95.2117 272° West 280 322 6,000  Level Houston Center
Thu 07:24:32 PM 29.8992 -95.2883 270° West 221 254 6,000  Level Houston Center
Thu 07:25:33 PM 29.8992 -95.3675 270° West 235 270 6,000  Level Houston Center
Thu 07:26:34 PM 29.8989 -95.4489 272° West 240 276 6,000 -295 Level Houston Center
Thu 07:27:35 PM 29.9008 -95.5256 307° West 230 265 5,400 -780 Descending Houston Center
Thu 07:28:37 PM 29.9350 -95.5772 25° Northeast 238 274 4,400 -1,024 Descending Houston Center
Thu 07:29:38 PM 29.9900 -95.5481 90° East 206 237 3,300 -1,033 Descending Houston Center
Thu 07:30:39 PM 29.9897 -95.4906 86° East 168 193 2,300 -885 Descending Houston Center
Thu 07:31:40 PM 29.9931 -95.4406 91° East 137 158 1,500 -738 Descending Houston Center
Thu 07:32:41 PM 29.9922 -95.3972 91° East 131 151 800 -689 Descending Houston Center

Login

Don't have an account? Register now (free) for customized features, flight alerts, and more!